sensor_id;sensor_type;location;lat;lon;timestamp;pressure;altitude;pressure_sealevel;temperature;humidity
25350;BME280;13302;48.796;11.978;2024-01-30T00:00:29;98305.09;;;2.92;35.29
25350;BME280;13302;48.796;11.978;2024-01-30T00:03:16;98299.91;;;2.96;35.06
25350;BME280;13302;48.796;11.978;2024-01-30T00:06:03;98298.25;;;2.95;34.79
25350;BME280;13302;48.796;11.978;2024-01-30T00:08:50;98292.50;;;2.91;35.16
25350;BME280;13302;48.796;11.978;2024-01-30T00:11:38;98301.25;;;2.88;35.17
25350;BME280;13302;48.796;11.978;2024-01-30T00:14:25;98291.66;;;2.81;35.49
25350;BME280;13302;48.796;11.978;2024-01-30T00:17:12;98290.00;;;2.80;35.46
25350;BME280;13302;48.796;11.978;2024-01-30T00:19:59;98283.97;;;2.72;35.52
25350;BME280;13302;48.796;11.978;2024-01-30T00:22:46;98282.88;;;2.78;35.41
25350;BME280;13302;48.796;11.978;2024-01-30T00:25:33;98286.41;;;2.74;35.48
25350;BME280;13302;48.796;11.978;2024-01-30T00:28:20;98283.19;;;2.77;35.33
25350;BME280;13302;48.796;11.978;2024-01-30T00:31:08;98276.91;;;2.82;35.39
25350;BME280;13302;48.796;11.978;2024-01-30T00:33:59;98278.03;;;2.86;35.43
25350;BME280;13302;48.796;11.978;2024-01-30T00:36:46;98281.56;;;2.81;35.69
25350;BME280;13302;48.796;11.978;2024-01-30T00:39:33;98282.59;;;2.75;35.87
25350;BME280;13302;48.796;11.978;2024-01-30T00:42:20;98281.47;;;2.66;36.01
25350;BME280;13302;48.796;11.978;2024-01-30T00:45:15;98289.94;;;2.69;36.06
25350;BME280;13302;48.796;11.978;2024-01-30T00:48:02;98284.78;;;2.73;35.53
25350;BME280;13302;48.796;11.978;2024-01-30T00:50:49;98283.94;;;2.67;35.57
25350;BME280;13302;48.796;11.978;2024-01-30T00:53:36;98282.06;;;2.73;35.52
25350;BME280;13302;48.796;11.978;2024-01-30T00:56:23;98283.19;;;2.82;35.24
25350;BME280;13302;48.796;11.978;2024-01-30T00:59:11;98274.47;;;2.85;35.02
25350;BME280;13302;48.796;11.978;2024-01-30T01:01:58;98283.47;;;2.81;35.23
25350;BME280;13302;48.796;11.978;2024-01-30T01:04:46;98282.06;;;2.78;35.18
25350;BME280;13302;48.796;11.978;2024-01-30T01:07:33;98275.81;;;2.77;35.06
25350;BME280;13302;48.796;11.978;2024-01-30T01:10:20;98280.16;;;2.73;35.07
25350;BME280;13302;48.796;11.978;2024-01-30T01:13:07;98280.63;;;2.60;35.37
25350;BME280;13302;48.796;11.978;2024-01-30T01:15:54;98280.56;;;2.50;35.44
25350;BME280;13302;48.796;11.978;2024-01-30T01:18:41;98276.50;;;2.53;35.43
25350;BME280;13302;48.796;11.978;2024-01-30T01:21:29;98274.88;;;2.62;35.10
25350;BME280;13302;48.796;11.978;2024-01-30T01:24:16;98282.78;;;2.58;35.04
25350;BME280;13302;48.796;11.978;2024-01-30T01:27:03;98282.53;;;2.60;35.02
25350;BME280;13302;48.796;11.978;2024-01-30T01:29:50;98275.13;;;2.55;35.07
25350;BME280;13302;48.796;11.978;2024-01-30T01:32:37;98274.56;;;2.53;35.15
25350;BME280;13302;48.796;11.978;2024-01-30T01:35:25;98278.63;;;2.46;35.63
25350;BME280;13302;48.796;11.978;2024-01-30T01:38:13;98271.84;;;2.48;35.22
25350;BME280;13302;48.796;11.978;2024-01-30T01:41:00;98270.72;;;2.49;35.08
25350;BME280;13302;48.796;11.978;2024-01-30T01:43:47;98269.41;;;2.57;34.85
25350;BME280;13302;48.796;11.978;2024-01-30T01:46:34;98266.69;;;2.62;34.72
25350;BME280;13302;48.796;11.978;2024-01-30T01:49:24;98264.78;;;2.62;34.75
25350;BME280;13302;48.796;11.978;2024-01-30T01:52:12;98274.00;;;2.46;35.31
25350;BME280;13302;48.796;11.978;2024-01-30T01:54:59;98271.44;;;2.29;35.79
25350;BME280;13302;48.796;11.978;2024-01-30T01:57:46;98266.75;;;2.25;35.88
25350;BME280;13302;48.796;11.978;2024-01-30T02:00:34;98270.38;;;2.36;35.45
25350;BME280;13302;48.796;11.978;2024-01-30T02:03:22;98270.38;;;2.36;35.25
25350;BME280;13302;48.796;11.978;2024-01-30T02:06:09;98263.06;;;2.46;35.04
25350;BME280;13302;48.796;11.978;2024-01-30T02:08:56;98258.44;;;2.47;34.73
25350;BME280;13302;48.796;11.978;2024-01-30T02:11:44;98260.34;;;2.46;34.97
25350;BME280;13302;48.796;11.978;2024-01-30T02:14:31;98264.59;;;2.27;35.45
25350;BME280;13302;48.796;11.978;2024-01-30T02:17:19;98262.63;;;2.17;35.61
25350;BME280;13302;48.796;11.978;2024-01-30T02:20:06;98265.59;;;2.11;35.71
25350;BME280;13302;48.796;11.978;2024-01-30T02:22:54;98273.81;;;2.21;35.44
25350;BME280;13302;48.796;11.978;2024-01-30T02:25:42;98272.50;;;2.28;35.12
25350;BME280;13302;48.796;11.978;2024-01-30T02:28:31;98278.53;;;2.30;35.13
25350;BME280;13302;48.796;11.978;2024-01-30T02:31:18;98278.78;;;2.24;34.98
25350;BME280;13302;48.796;11.978;2024-01-30T02:34:05;98269.75;;;2.23;35.11
25350;BME280;13302;48.796;11.978;2024-01-30T02:36:53;98276.28;;;2.22;34.98
25350;BME280;13302;48.796;11.978;2024-01-30T02:39:40;98270.31;;;2.25;34.83
25350;BME280;13302;48.796;11.978;2024-01-30T02:42:27;98260.97;;;2.16;35.17
25350;BME280;13302;48.796;11.978;2024-01-30T02:45:14;98266.41;;;2.11;35.32
25350;BME280;13302;48.796;11.978;2024-01-30T02:48:01;98266.94;;;2.13;35.45
25350;BME280;13302;48.796;11.978;2024-01-30T02:50:48;98261.53;;;2.18;35.42
25350;BME280;13302;48.796;11.978;2024-01-30T02:53:35;98264.56;;;2.22;34.91
25350;BME280;13302;48.796;11.978;2024-01-30T02:56:22;98261.28;;;2.25;34.92
25350;BME280;13302;48.796;11.978;2024-01-30T02:59:09;98264.81;;;2.20;34.85
25350;BME280;13302;48.796;11.978;2024-01-30T03:01:56;98261.56;;;2.23;34.70
25350;BME280;13302;48.796;11.978;2024-01-30T03:04:44;98267.03;;;2.23;34.75
25350;BME280;13302;48.796;11.978;2024-01-30T03:07:31;98263.69;;;2.16;34.81
25350;BME280;13302;48.796;11.978;2024-01-30T03:10:18;98262.63;;;2.17;34.80
25350;BME280;13302;48.796;11.978;2024-01-30T03:13:05;98268.59;;;2.14;34.88
25350;BME280;13302;48.796;11.978;2024-01-30T03:15:53;98273.53;;;2.17;34.73
25350;BME280;13302;48.796;11.978;2024-01-30T03:18:40;98263.97;;;2.15;34.72
25350;BME280;13302;48.796;11.978;2024-01-30T03:21:27;98266.94;;;2.13;34.89
25350;BME280;13302;48.796;11.978;2024-01-30T03:24:14;98260.03;;;2.01;35.41
25350;BME280;13302;48.796;11.978;2024-01-30T03:27:01;98264.47;;;2.07;35.14
25350;BME280;13302;48.796;11.978;2024-01-30T03:29:48;98266.41;;;2.16;34.87
25350;BME280;13302;48.796;11.978;2024-01-30T03:32:35;98265.94;;;2.24;34.64
25350;BME280;13302;48.796;11.978;2024-01-30T03:35:22;98277.16;;;2.28;34.49
25350;BME280;13302;48.796;11.978;2024-01-30T03:38:09;98268.06;;;2.17;34.51
25350;BME280;13302;48.796;11.978;2024-01-30T03:40:56;98269.44;;;2.15;34.84
25350;BME280;13302;48.796;11.978;2024-01-30T03:43:43;98268.00;;;2.07;34.90
25350;BME280;13302;48.796;11.978;2024-01-30T03:46:30;98264.91;;;1.94;35.19
25350;BME280;13302;48.796;11.978;2024-01-30T03:49:17;98263.72;;;1.84;35.39
25350;BME280;13302;48.796;11.978;2024-01-30T03:52:05;98258.84;;;1.87;35.08
25350;BME280;13302;48.796;11.978;2024-01-30T03:54:52;98256.97;;;1.92;34.96
25350;BME280;13302;48.796;11.978;2024-01-30T03:57:39;98258.13;;;2.01;34.71
25350;BME280;13302;48.796;11.978;2024-01-30T04:00:26;98262.84;;;2.11;34.50
25350;BME280;13302;48.796;11.978;2024-01-30T04:03:14;98254.88;;;1.99;34.81
25350;BME280;13302;48.796;11.978;2024-01-30T04:06:02;98250.53;;;2.03;34.78
25350;BME280;13302;48.796;11.978;2024-01-30T04:08:49;98254.34;;;2.02;34.67
25350;BME280;13302;48.796;11.978;2024-01-30T04:11:36;98254.53;;;1.91;34.94
25350;BME280;13302;48.796;11.978;2024-01-30T04:14:23;98255.59;;;1.90;34.93
25350;BME280;13302;48.796;11.978;2024-01-30T04:17:10;98250.41;;;1.88;35.02
25350;BME280;13302;48.796;11.978;2024-01-30T04:19:57;98248.34;;;1.68;35.35
25350;BME280;13302;48.796;11.978;2024-01-30T04:22:45;98252.97;;;1.68;35.56
25350;BME280;13302;48.796;11.978;2024-01-30T04:25:32;98253.97;;;1.57;35.76
25350;BME280;13302;48.796;11.978;2024-01-30T04:28:20;98260.88;;;1.69;35.26
25350;BME280;13302;48.796;11.978;2024-01-30T04:31:07;98258.81;;;1.81;34.78
25350;BME280;13302;48.796;11.978;2024-01-30T04:33:54;98264.25;;;1.81;34.94
25350;BME280;13302;48.796;11.978;2024-01-30T04:36:44;98261.47;;;1.76;34.94
25350;BME280;13302;48.796;11.978;2024-01-30T04:39:35;98269.94;;;1.75;34.87
25350;BME280;13302;48.796;11.978;2024-01-30T04:42:22;98261.47;;;1.76;34.86
25350;BME280;13302;48.796;11.978;2024-01-30T04:45:09;98273.38;;;1.65;35.07
25350;BME280;13302;48.796;11.978;2024-01-30T04:47:56;98265.63;;;1.52;35.25
25350;BME280;13302;48.796;11.978;2024-01-30T04:50:43;98272.06;;;1.41;35.53
25350;BME280;13302;48.796;11.978;2024-01-30T04:53:30;98265.47;;;1.64;35.13
25350;BME280;13302;48.796;11.978;2024-01-30T04:56:18;98256.97;;;1.60;34.99
25350;BME280;13302;48.796;11.978;2024-01-30T04:59:05;98254.72;;;1.79;34.53
25350;BME280;13302;48.796;11.978;2024-01-30T05:01:52;98253.13;;;1.56;34.99
25350;BME280;13302;48.796;11.978;2024-01-30T05:04:40;98255.41;;;1.38;35.42
25350;BME280;13302;48.796;11.978;2024-01-30T05:07:28;98249.69;;;1.39;35.43
25350;BME280;13302;48.796;11.978;2024-01-30T05:10:15;98242.94;;;1.42;35.76
25350;BME280;13302;48.796;11.978;2024-01-30T05:13:02;98248.09;;;1.43;35.40
25350;BME280;13302;48.796;11.978;2024-01-30T05:15:49;98256.03;;;1.45;35.46
25350;BME280;13302;48.796;11.978;2024-01-30T05:18:36;98252.22;;;1.46;35.51
25350;BME280;13302;48.796;11.978;2024-01-30T05:21:23;98246.50;;;1.47;35.87
25350;BME280;13302;48.796;11.978;2024-01-30T05:24:11;98247.63;;;1.51;35.67
25350;BME280;13302;48.796;11.978;2024-01-30T05:26:58;98256.09;;;1.50;35.73
25350;BME280;13302;48.796;11.978;2024-01-30T05:29:45;98254.97;;;1.51;36.02
25350;BME280;13302;48.796;11.978;2024-01-30T05:32:32;98257.69;;;1.51;36.24
25350;BME280;13302;48.796;11.978;2024-01-30T05:35:19;98253.38;;;1.55;36.29
25350;BME280;13302;48.796;11.978;2024-01-30T05:38:08;98269.25;;;1.63;35.91
25350;BME280;13302;48.796;11.978;2024-01-30T05:40:55;98266.00;;;1.61;35.92
25350;BME280;13302;48.796;11.978;2024-01-30T05:43:42;98264.13;;;1.66;35.85
25350;BME280;13302;48.796;11.978;2024-01-30T05:46:29;98266.53;;;1.63;35.98
25350;BME280;13302;48.796;11.978;2024-01-30T05:49:16;98271.50;;;1.71;35.61
25350;BME280;13302;48.796;11.978;2024-01-30T05:52:03;98278.66;;;1.77;35.68
25350;BME280;13302;48.796;11.978;2024-01-30T05:54:51;98274.22;;;1.66;35.92
25350;BME280;13302;48.796;11.978;2024-01-30T05:57:38;98281.50;;;1.60;35.99
25350;BME280;13302;48.796;11.978;2024-01-30T06:00:25;98277.00;;;1.76;35.62
25350;BME280;13302;48.796;11.978;2024-01-30T06:03:12;98286.06;;;1.81;35.23
25350;BME280;13302;48.796;11.978;2024-01-30T06:05:59;98287.09;;;1.75;35.33
25350;BME280;13302;48.796;11.978;2024-01-30T06:08:46;98277.31;;;1.79;35.21
25350;BME280;13302;48.796;11.978;2024-01-30T06:11:33;98284.13;;;1.77;35.25
25350;BME280;13302;48.796;11.978;2024-01-30T06:14:20;98286.91;;;1.82;35.01
25350;BME280;13302;48.796;11.978;2024-01-30T06:17:08;98279.91;;;1.96;34.68
25350;BME280;13302;48.796;11.978;2024-01-30T06:19:55;98277.19;;;1.96;34.61
25350;BME280;13302;48.796;11.978;2024-01-30T06:22:42;98274.09;;;1.88;34.50
25350;BME280;13302;48.796;11.978;2024-01-30T06:25:29;98277.53;;;1.73;35.19
25350;BME280;13302;48.796;11.978;2024-01-30T06:28:16;98291.81;;;1.53;35.28
25350;BME280;13302;48.796;11.978;2024-01-30T06:31:04;98288.81;;;1.55;35.31
25350;BME280;13302;48.796;11.978;2024-01-30T06:33:51;98289.94;;;1.59;35.12
25350;BME280;13302;48.796;11.978;2024-01-30T06:36:38;98291.38;;;1.40;35.33
25350;BME280;13302;48.796;11.978;2024-01-30T06:39:26;98299.50;;;1.34;35.62
25350;BME280;13302;48.796;11.978;2024-01-30T06:42:13;98296.06;;;1.44;35.34
25350;BME280;13302;48.796;11.978;2024-01-30T06:45:00;98297.81;;;1.55;35.06
25350;BME280;13302;48.796;11.978;2024-01-30T06:47:48;98305.63;;;1.47;35.16
25350;BME280;13302;48.796;11.978;2024-01-30T06:50:35;98302.81;;;1.36;35.53
25350;BME280;13302;48.796;11.978;2024-01-30T06:53:22;98296.28;;;1.38;35.36
25350;BME280;13302;48.796;11.978;2024-01-30T06:56:09;98303.47;;;1.49;34.94
25350;BME280;13302;48.796;11.978;2024-01-30T06:58:56;98302.28;;;1.40;35.34
25350;BME280;13302;48.796;11.978;2024-01-30T07:01:45;98309.91;;;1.64;34.49
25350;BME280;13302;48.796;11.978;2024-01-30T07:04:32;98303.94;;;1.67;34.64
25350;BME280;13302;48.796;11.978;2024-01-30T07:07:19;98298.56;;;1.51;35.08
25350;BME280;13302;48.796;11.978;2024-01-30T07:10:07;98304.13;;;1.34;35.59
25350;BME280;13302;48.796;11.978;2024-01-30T07:12:54;98310.53;;;1.23;35.64
25350;BME280;13302;48.796;11.978;2024-01-30T07:15:42;98306.91;;;1.39;35.54
25350;BME280;13302;48.796;11.978;2024-01-30T07:18:29;98304.59;;;1.53;35.19
25350;BME280;13302;48.796;11.978;2024-01-30T07:21:16;98309.41;;;1.41;35.59
25350;BME280;13302;48.796;11.978;2024-01-30T07:24:03;98311.28;;;1.40;35.66
25350;BME280;13302;48.796;11.978;2024-01-30T07:26:50;98322.81;;;1.25;36.25
25350;BME280;13302;48.796;11.978;2024-01-30T07:29:37;98318.69;;;1.23;36.29
25350;BME280;13302;48.796;11.978;2024-01-30T07:32:24;98321.47;;;1.28;36.25
25350;BME280;13302;48.796;11.978;2024-01-30T07:35:11;98322.31;;;1.50;35.94
25350;BME280;13302;48.796;11.978;2024-01-30T07:37:58;98314.13;;;1.50;35.88
25350;BME280;13302;48.796;11.978;2024-01-30T07:40:46;98316.13;;;1.60;35.78
25350;BME280;13302;48.796;11.978;2024-01-30T07:43:33;98320.84;;;1.43;36.50
25350;BME280;13302;48.796;11.978;2024-01-30T07:46:20;98315.38;;;1.38;36.83
25350;BME280;13302;48.796;11.978;2024-01-30T07:49:07;98315.38;;;1.43;36.76
25350;BME280;13302;48.796;11.978;2024-01-30T07:51:54;98323.38;;;1.49;37.11
25350;BME280;13302;48.796;11.978;2024-01-30T07:54:41;98327.53;;;1.57;37.27
25350;BME280;13302;48.796;11.978;2024-01-30T07:57:28;98328.47;;;1.67;37.38
25350;BME280;13302;48.796;11.978;2024-01-30T08:00:16;98325.53;;;1.74;37.51
25350;BME280;13302;48.796;11.978;2024-01-30T08:03:04;98324.25;;;1.81;37.49
25350;BME280;13302;48.796;11.978;2024-01-30T08:05:51;98326.25;;;1.91;37.59
25350;BME280;13302;48.796;11.978;2024-01-30T08:08:38;98332.59;;;2.02;37.57
25350;BME280;13302;48.796;11.978;2024-01-30T08:11:25;98334.03;;;2.09;37.69
25350;BME280;13302;48.796;11.978;2024-01-30T08:14:14;98336.28;;;2.17;37.67
25350;BME280;13302;48.796;11.978;2024-01-30T08:17:01;98330.88;;;2.22;37.64
25350;BME280;13302;48.796;11.978;2024-01-30T08:19:48;98332.03;;;2.32;37.69
25350;BME280;13302;48.796;11.978;2024-01-30T08:22:35;98339.44;;;2.36;37.84
25350;BME280;13302;48.796;11.978;2024-01-30T08:25:22;98335.94;;;2.41;37.66
25350;BME280;13302;48.796;11.978;2024-01-30T08:28:09;98326.66;;;2.47;37.77
25350;BME280;13302;48.796;11.978;2024-01-30T08:30:56;98335.44;;;2.54;37.71
25350;BME280;13302;48.796;11.978;2024-01-30T08:33:44;98328.94;;;2.60;37.82
25350;BME280;13302;48.796;11.978;2024-01-30T08:36:32;98333.34;;;2.66;37.79
25350;BME280;13302;48.796;11.978;2024-01-30T08:39:19;98337.75;;;2.72;37.69
25350;BME280;13302;48.796;11.978;2024-01-30T08:42:06;98330.97;;;2.80;37.67
25350;BME280;13302;48.796;11.978;2024-01-30T08:44:54;98337.28;;;2.85;37.78
25350;BME280;13302;48.796;11.978;2024-01-30T08:47:43;98325.84;;;2.93;37.74
25350;BME280;13302;48.796;11.978;2024-01-30T08:50:30;98323.13;;;2.98;37.67
25350;BME280;13302;48.796;11.978;2024-01-30T08:53:17;98334.09;;;3.03;37.67
25350;BME280;13302;48.796;11.978;2024-01-30T08:56:05;98337.66;;;3.09;37.53
25350;BME280;13302;48.796;11.978;2024-01-30T08:58:52;98334.16;;;3.13;37.44
25350;BME280;13302;48.796;11.978;2024-01-30T09:01:39;98323.28;;;3.18;37.51
25350;BME280;13302;48.796;11.978;2024-01-30T09:04:41;98338.03;;;3.23;37.52
25350;BME280;13302;48.796;11.978;2024-01-30T09:07:28;98331.75;;;3.27;37.62
25350;BME280;13302;48.796;11.978;2024-01-30T09:10:15;98331.78;;;3.32;37.51
25350;BME280;13302;48.796;11.978;2024-01-30T09:13:06;98333.16;;;3.35;37.59
25350;BME280;13302;48.796;11.978;2024-01-30T09:15:53;98340.28;;;3.41;37.61
25350;BME280;13302;48.796;11.978;2024-01-30T09:18:42;98341.38;;;3.45;37.62
25350;BME280;13302;48.796;11.978;2024-01-30T09:21:29;98338.66;;;3.50;37.41
25350;BME280;13302;48.796;11.978;2024-01-30T09:24:16;98344.41;;;3.53;37.58
25350;BME280;13302;48.796;11.978;2024-01-30T09:27:03;98341.72;;;3.58;37.39
25350;BME280;13302;48.796;11.978;2024-01-30T09:29:50;98345.53;;;3.62;37.56
25350;BME280;13302;48.796;11.978;2024-01-30T09:32:37;98336.53;;;3.67;37.55
25350;BME280;13302;48.796;11.978;2024-01-30T09:35:24;98334.91;;;3.71;37.49
25350;BME280;13302;48.796;11.978;2024-01-30T09:38:11;98341.47;;;3.75;37.50
25350;BME280;13302;48.796;11.978;2024-01-30T09:41:03;98342.84;;;3.78;37.52
25350;BME280;13302;48.796;11.978;2024-01-30T09:43:57;98344.50;;;3.84;37.48
25350;BME280;13302;48.796;11.978;2024-01-30T09:46:46;98349.41;;;3.87;37.54
25350;BME280;13302;48.796;11.978;2024-01-30T09:49:35;98341.22;;;3.92;37.49
25350;BME280;13302;48.796;11.978;2024-01-30T09:52:22;98343.94;;;3.97;37.47
25350;BME280;13302;48.796;11.978;2024-01-30T09:55:10;98341.50;;;4.00;37.62
25350;BME280;13302;48.796;11.978;2024-01-30T09:57:57;98332.75;;;4.03;37.48
25350;BME280;13302;48.796;11.978;2024-01-30T10:00:44;98346.44;;;4.08;37.67
25350;BME280;13302;48.796;11.978;2024-01-30T10:03:31;98341.25;;;4.12;37.42
25350;BME280;13302;48.796;11.978;2024-01-30T10:06:19;98342.59;;;4.14;37.50
25350;BME280;13302;48.796;11.978;2024-01-30T10:09:09;98337.38;;;4.18;37.42
25350;BME280;13302;48.796;11.978;2024-01-30T10:12:01;98346.44;;;4.24;37.73
25350;BME280;13302;48.796;11.978;2024-01-30T10:14:49;98345.34;;;4.25;37.82
25350;BME280;13302;48.796;11.978;2024-01-30T10:17:37;98343.72;;;4.29;37.75
25350;BME280;13302;48.796;11.978;2024-01-30T10:20:25;98343.72;;;4.34;37.64
25350;BME280;13302;48.796;11.978;2024-01-30T10:23:12;98345.88;;;4.37;37.90
25350;BME280;13302;48.796;11.978;2024-01-30T10:26:00;98343.69;;;4.39;38.12
25350;BME280;13302;48.796;11.978;2024-01-30T10:28:47;98334.13;;;4.41;37.90
25350;BME280;13302;48.796;11.978;2024-01-30T10:31:35;98331.91;;;4.43;38.20
25350;BME280;13302;48.796;11.978;2024-01-30T10:34:23;98320.41;;;4.46;38.08
25350;BME280;13302;48.796;11.978;2024-01-30T10:37:11;98324.22;;;4.50;38.11
25350;BME280;13302;48.796;11.978;2024-01-30T10:40:04;98320.97;;;4.53;38.17
25350;BME280;13302;48.796;11.978;2024-01-30T10:42:53;98326.41;;;4.58;37.86
25350;BME280;13302;48.796;11.978;2024-01-30T10:45:44;98320.41;;;4.61;38.31
25350;BME280;13302;48.796;11.978;2024-01-30T10:48:36;98327.50;;;4.68;38.13
25350;BME280;13302;48.796;11.978;2024-01-30T10:51:31;98313.00;;;4.72;38.27
25350;BME280;13302;48.796;11.978;2024-01-30T10:54:19;98317.38;;;4.78;38.45
25350;BME280;13302;48.796;11.978;2024-01-30T10:57:07;98304.19;;;4.85;38.49
25350;BME280;13302;48.796;11.978;2024-01-30T10:59:59;98304.19;;;4.90;38.32
25350;BME280;13302;48.796;11.978;2024-01-30T11:02:47;98313.47;;;4.99;38.35
25350;BME280;13302;48.796;11.978;2024-01-30T11:05:34;98301.38;;;5.05;38.22
25350;BME280;13302;48.796;11.978;2024-01-30T11:08:24;98297.53;;;5.12;38.45
25350;BME280;13302;48.796;11.978;2024-01-30T11:11:12;98301.63;;;5.19;38.44
25350;BME280;13302;48.796;11.978;2024-01-30T11:14:03;98299.66;;;5.25;38.43
25350;BME280;13302;48.796;11.978;2024-01-30T11:16:50;98293.06;;;5.31;38.40
25350;BME280;13302;48.796;11.978;2024-01-30T11:19:37;98285.63;;;5.36;38.44
25350;BME280;13302;48.796;11.978;2024-01-30T11:22:24;98280.09;;;5.41;38.27
25350;BME280;13302;48.796;11.978;2024-01-30T11:25:13;98271.03;;;5.46;38.44
25350;BME280;13302;48.796;11.978;2024-01-30T11:28:00;98268.84;;;5.48;38.15
25350;BME280;13302;48.796;11.978;2024-01-30T11:30:47;98275.63;;;5.56;38.15
25350;BME280;13302;48.796;11.978;2024-01-30T11:33:37;98264.91;;;5.59;38.16
25350;BME280;13302;48.796;11.978;2024-01-30T11:36:25;98263.22;;;5.63;38.00
25350;BME280;13302;48.796;11.978;2024-01-30T11:39:15;98266.22;;;5.67;38.20
25350;BME280;13302;48.796;11.978;2024-01-30T11:42:06;98265.38;;;5.71;38.16
25350;BME280;13302;48.796;11.978;2024-01-30T11:44:54;98264.53;;;5.76;38.28
25350;BME280;13302;48.796;11.978;2024-01-30T11:47:42;98258.19;;;5.80;38.41
25350;BME280;13302;48.796;11.978;2024-01-30T11:50:32;98255.41;;;5.85;38.32
25350;BME280;13302;48.796;11.978;2024-01-30T11:53:20;98269.38;;;5.89;38.16
25350;BME280;13302;48.796;11.978;2024-01-30T11:56:07;98259.72;;;5.91;38.16
25350;BME280;13302;48.796;11.978;2024-01-30T11:58:55;98262.72;;;5.95;38.28
25350;BME280;13302;48.796;11.978;2024-01-30T12:01:42;98257.47;;;5.98;38.18
25350;BME280;13302;48.796;11.978;2024-01-30T12:04:29;98250.28;;;6.02;38.04
25350;BME280;13302;48.796;11.978;2024-01-30T12:07:17;98247.00;;;6.06;38.20
25350;BME280;13302;48.796;11.978;2024-01-30T12:10:04;98249.16;;;6.09;38.11
25350;BME280;13302;48.796;11.978;2024-01-30T12:12:53;98243.41;;;6.10;38.02
25350;BME280;13302;48.796;11.978;2024-01-30T12:15:40;98243.94;;;6.12;38.19
25350;BME280;13302;48.796;11.978;2024-01-30T12:18:28;98246.09;;;6.15;38.21
25350;BME280;13302;48.796;11.978;2024-01-30T12:21:17;98242.25;;;6.16;38.09
25350;BME280;13302;48.796;11.978;2024-01-30T12:24:05;98236.19;;;6.19;37.99
25350;BME280;13302;48.796;11.978;2024-01-30T12:26:57;98230.69;;;6.19;37.99
25350;BME280;13302;48.796;11.978;2024-01-30T12:29:45;98235.06;;;6.20;37.77
25350;BME280;13302;48.796;11.978;2024-01-30T12:32:38;98232.31;;;6.20;37.84
25350;BME280;13302;48.796;11.978;2024-01-30T12:35:26;98225.44;;;6.23;37.75
25350;BME280;13302;48.796;11.978;2024-01-30T12:38:17;98229.31;;;6.22;37.87
25350;BME280;13302;48.796;11.978;2024-01-30T12:41:04;98221.06;;;6.22;37.91
25350;BME280;13302;48.796;11.978;2024-01-30T12:43:53;98225.44;;;6.23;38.14
25350;BME280;13302;48.796;11.978;2024-01-30T12:46:40;98215.25;;;6.23;37.97
25350;BME280;13302;48.796;11.978;2024-01-30T12:49:28;98226.78;;;6.25;38.09
25350;BME280;13302;48.796;11.978;2024-01-30T12:52:16;98218.28;;;6.27;37.84
25350;BME280;13302;48.796;11.978;2024-01-30T12:55:03;98213.31;;;6.29;37.88
25350;BME280;13302;48.796;11.978;2024-01-30T12:57:51;98208.63;;;6.29;37.80
25350;BME280;13302;48.796;11.978;2024-01-30T13:00:38;98202.03;;;6.30;38.10
25350;BME280;13302;48.796;11.978;2024-01-30T13:03:25;98203.38;;;6.33;37.93
25350;BME280;13302;48.796;11.978;2024-01-30T13:06:12;98206.13;;;6.33;37.98
25350;BME280;13302;48.796;11.978;2024-01-30T13:08:59;98208.28;;;6.36;37.87
25350;BME280;13302;48.796;11.978;2024-01-30T13:11:46;98201.41;;;6.38;38.10
25350;BME280;13302;48.796;11.978;2024-01-30T13:14:33;98197.25;;;6.41;38.33
25350;BME280;13302;48.796;11.978;2024-01-30T13:17:20;98203.28;;;6.43;38.25
25350;BME280;13302;48.796;11.978;2024-01-30T13:20:08;98201.88;;;6.45;38.17
25350;BME280;13302;48.796;11.978;2024-01-30T13:22:58;98204.03;;;6.49;38.40
25350;BME280;13302;48.796;11.978;2024-01-30T13:25:45;98204.56;;;6.51;38.24
25350;BME280;13302;48.796;11.978;2024-01-30T13:28:32;98204.25;;;6.52;38.31
25350;BME280;13302;48.796;11.978;2024-01-30T13:31:19;98203.97;;;6.54;38.40
25350;BME280;13302;48.796;11.978;2024-01-30T13:34:07;98198.19;;;6.55;38.28
25350;BME280;13302;48.796;11.978;2024-01-30T13:36:55;98200.94;;;6.55;38.50
25350;BME280;13302;48.796;11.978;2024-01-30T13:39:42;98206.94;;;6.57;38.64
25350;BME280;13302;48.796;11.978;2024-01-30T13:42:29;98200.34;;;6.58;38.50
25350;BME280;13302;48.796;11.978;2024-01-30T13:45:16;98202.00;;;6.59;38.35
25350;BME280;13302;48.796;11.978;2024-01-30T13:48:03;98205.25;;;6.61;38.41
25350;BME280;13302;48.796;11.978;2024-01-30T13:50:50;98206.06;;;6.62;38.40
25350;BME280;13302;48.796;11.978;2024-01-30T13:53:38;98196.19;;;6.61;38.19
25350;BME280;13302;48.796;11.978;2024-01-30T13:56:25;98200.56;;;6.62;38.60
25350;BME280;13302;48.796;11.978;2024-01-30T13:59:13;98195.91;;;6.62;38.39
25350;BME280;13302;48.796;11.978;2024-01-30T14:02:00;98196.72;;;6.63;38.27
25350;BME280;13302;48.796;11.978;2024-01-30T14:04:48;98201.91;;;6.64;38.60
25350;BME280;13302;48.796;11.978;2024-01-30T14:07:38;98203.88;;;6.64;38.80
25350;BME280;13302;48.796;11.978;2024-01-30T14:10:26;98200.81;;;6.65;38.73
25350;BME280;13302;48.796;11.978;2024-01-30T14:13:14;98204.91;;;6.68;38.77
25350;BME280;13302;48.796;11.978;2024-01-30T14:16:01;98195.53;;;6.69;38.94
25350;BME280;13302;48.796;11.978;2024-01-30T14:18:50;98199.09;;;6.69;38.78
25350;BME280;13302;48.796;11.978;2024-01-30T14:21:38;98204.31;;;6.71;38.83
25350;BME280;13302;48.796;11.978;2024-01-30T14:24:26;98206.75;;;6.72;38.69
25350;BME280;13302;48.796;11.978;2024-01-30T14:27:13;98205.16;;;6.71;38.63
25350;BME280;13302;48.796;11.978;2024-01-30T14:30:01;98205.66;;;6.73;38.68
25350;BME280;13302;48.796;11.978;2024-01-30T14:32:48;98208.63;;;6.77;38.74
25350;BME280;13302;48.796;11.978;2024-01-30T14:35:35;98205.06;;;6.76;38.60
25350;BME280;13302;48.796;11.978;2024-01-30T14:38:23;98213.84;;;6.78;38.88
25350;BME280;13302;48.796;11.978;2024-01-30T14:41:11;98220.09;;;6.84;38.49
25350;BME280;13302;48.796;11.978;2024-01-30T14:43:58;98218.47;;;6.83;38.64
25350;BME280;13302;48.796;11.978;2024-01-30T14:46:45;98222.31;;;6.82;38.57